• Join FlightAware (Why Join?)
  • Login
  • US Flag 
03:35AM EDT


 

Airport Tracker/Info


-or-


 

Live Flight TrackerFlight Track Log ✈ UAL5908 ✈ 08-Dec-2013 ✈ KDIK - KDEN

Flight Track Log - Related Links

Times and Time Zones

All times are in EST time to prevent confusion due to time zone crossing. See the UAL5908 flight status page for this flight to view local times or setup timezone preferences in your user account.

Time Position Orientation Groundspeed Altitude Reporting Facility
EST Latitude Longitude Course Direction KTS MPH feet Rate Location/Type
11:49AM 46.7264 -102.7889 270° West 219 252 6,000  Level Minneapolis Center
11:50AM 46.6628 -102.7925 182° South 228 262 8,000 2,280 Climbing Minneapolis Center
11:51AM 43.6245 -103.7124 231° Southwest  Level Estimated
11:51AM 46.5742 -102.7994 183° South 247 284 10,700  Level Minneapolis Center
11:52AM 43.5300 -103.7380 270° West  Level Estimated
11:52AM 46.4833 -102.8094 184° South 292 336 11,600  Level Minneapolis Center
11:53AM 43.4343 -103.7547 187° South  Level FlightAware Approximate
11:53AM 46.3872 -102.8142 182° South 326 375 13,100  Level Minneapolis Center
11:54AM 43.3398 -103.7804 270° West  Level Estimated
11:54AM 46.2875 -102.8228 183° South 344 396 14,600  Level Minneapolis Center
11:55AM 46.1853 -102.8317 183° South 356 410 16,200 1,560 Climbing Minneapolis Center
11:56AM 46.0844 -102.8403 183° South 361 415 17,900 1,560 Climbing Minneapolis Center
11:57AM 45.9842 -102.8483 183° South 362 417 19,500 1,560 Climbing Minneapolis Center
11:58AM 45.8839 -102.8578 184° South 361 415 21,200 1,740 Climbing Minneapolis Center
11:59AM 45.7653 -102.8658 183° South 359 413 23,200 1,440 Climbing Minneapolis Center
12:00PM 45.6664 -102.8711 182° South 358 412 24,200 1,020 Climbing Minneapolis Center
12:01PM 45.5619 -102.8817 184° South 364 419 25,300 1,020 Climbing Minneapolis Center
12:02PM 45.4567 -102.8889 183° South 372 428 26,400 1,080 Climbing Minneapolis Center
12:03PM 45.3517 -102.8967 183° South 375 432 27,600 1,080 Climbing Minneapolis Center
12:04PM 45.2461 -102.9056 183° South 378 435 28,700 1,080 Climbing Minneapolis Center
12:05PM 45.1417 -102.9142 183° South 378 435 29,900 1,200 Climbing Minneapolis Center
12:06PM 45.0150 -102.9228 183° South 379 436 31,200 1,200 Climbing Minneapolis Center
12:08PM 44.9092 -102.9308 183° South 380 437 32,400 1,080 Climbing Minneapolis Center
12:09PM 44.8022 -102.9386 183° South 382 440 33,500 1,020 Climbing Minneapolis Center
12:10PM 44.6967 -102.9478 184° South 382 440 34,600 720 Climbing Minneapolis Center
12:11PM 44.5903 -102.9553 183° South 382 440 35,000 180 Climbing Minneapolis Center
12:12PM 44.4783 -102.9647 183° South 390 449 35,000  Level Minneapolis Center
12:13PM 44.3500 -102.9728 183° South 405 466 35,000  Level Minneapolis Center
12:14PM 44.2400 -102.9858 185° South 420 483 35,000  Level Minneapolis Center
12:15PM 44.0644 -103.0056 185° South 433 498 35,000  Level Denver Center
12:16PM 43.9292 -103.0211 185° South 436 502 35,000  Level Denver Center
12:17PM 43.8139 -103.0475 189° South 439 505 35,000  Level Denver Center
12:18PM 43.7008 -103.0756 190° South 436 502 35,000  Level Denver Center
12:19PM 43.5667 -103.1064 189° South 436 502 35,000  Level Denver Center
12:20PM 43.4525 -103.1322 189° South 435 501 35,000  Level Denver Center
12:21PM 43.3200 -103.1625 189° South 432 497 35,000  Level Denver Center
12:22PM 43.2069 -103.1892 190° South 430 495 35,000  Level Denver Center
12:23PM 43.0742 -103.2186 189° South 430 495 35,000  Level Denver Center
12:24PM 42.9603 -103.2453 190° South 432 497 35,000  Level Denver Center
12:25PM 42.8492 -103.2697 189° South 425 489 35,000  Level Denver Center
12:26PM 42.7200 -103.2986 189° South 421 484 35,000  Level Denver Center
12:27PM 42.6075 -103.3239 189° South 421 484 35,000  Level Denver Center
12:28PM 42.4764 -103.3525 189° South 427 491 35,000  Level Denver Center
12:29PM 42.3650 -103.3789 190° South 426 490 35,000 -840 Level Denver Center
12:30PM 42.2353 -103.4083 190° South 421 484 33,400 -1,440 Descending Denver Center
12:31PM 42.1258 -103.4319 189° South 416 479 32,100 -720 Descending Denver Center
12:33PM 42.0175 -103.4564 190° South 412 474 32,000 -60 Descending Denver Center
12:34PM 41.8911 -103.4828 189° South 411 473 32,000  Level Denver Center
12:35PM 41.7783 -103.4889 182° South 418 481 32,000  Level Denver Center
12:36PM 41.6467 -103.4922 181° South 422 486 32,000  Level Denver Center
12:37PM 41.5328 -103.4931 180° South 426 490 32,000  Level Denver Center
12:38PM 41.3992 -103.4972 181° South 429 494 32,000  Level Denver Center
12:39PM 41.2842 -103.4989 181° South 432 497 32,000  Level Denver Center
12:40PM 41.1700 -103.5017 181° South 430 495 32,000  Level Denver Center
12:41PM 41.0386 -103.5050 181° South 419 482 32,000 -60 Level Denver Center
12:42PM 40.9133 -103.5194 185° South 424 488 31,900 -540 Descending Denver Center
12:43PM 40.8064 -103.5669 199° South 408 470 30,900 -840 Descending Denver Center
12:44PM 40.7047 -103.6192 201° Southwest 396 456 30,200 -1,200 Descending Denver Center
12:45PM 40.6022 -103.6733 202° Southwest 397 457 28,500 -1,740 Descending Denver Center
12:46PM 40.5267 -103.7731 225° Southwest 384 442 26,700 -1,920 Descending Denver Center
12:47PM 40.4564 -103.8667 225° Southwest 365 420 24,600 -2,340 Descending Denver Center
12:48PM 40.3742 -103.9803 226° Southwest 378 435 21,900 -2,760 Descending Denver Center
12:49PM 40.2919 -104.0747 221° Southwest 389 448 19,000 -3,060 Descending Denver Center
12:50PM 40.2044 -104.1700 220° Southwest 379 436 15,600 -2,760 Descending Denver Center
12:51PM 40.1242 -104.2567 220° Southwest 375 432 13,400 -1,320 Descending Denver Center
12:52PM 40.0389 -104.3497 220° Southwest 372 428 13,000 -360 Descending Denver Center
12:53PM 39.9594 -104.4361 220° Southwest 372 428 12,700 -540 Descending Denver Center
12:54PM 39.8764 -104.4961 209° Southwest 342 394 12,000 -540 Descending Denver Center
12:55PM 39.7906 -104.5017 183° South 284 327 11,700 -780 Descending Denver Center
12:56PM 39.7217 -104.5042 182° South 252 290 10,500 -1,260 Descending Denver Center
12:57PM 39.6503 -104.5047 180° South 255 293 9,100 -780 Descending Denver Center
12:58PM 39.5761 -104.5064 181° South 247 284 9,000 -300 Descending Denver Center
12:59PM 39.5228 -104.5294 198° South 222 255 8,600 -540 Descending Denver Center
01:00PM 39.5178 -104.6103 265° West 211 243 8,000 -300 Descending Denver Center
01:01PM 39.5619 -104.6464 328° Northwest 190 219 8,000  Level Denver Center
01:02PM 39.6106 -104.6450 North 175 201 8,000  Level Denver Center
01:03PM 39.6622 -104.6436 North 173 199 8,000 -60 Level Denver Center
01:04PM 39.7108 -104.6431 North 174 200 7,900 -540 Descending Denver Center
01:06PM 39.7597 -104.6428 360° North 163 188 6,900 -900 Descending Denver Center
01:07PM 39.7994 -104.6419 North 146 168 6,100 -780 Descending Denver Center
01:08PM 39.8364 -104.6419 360° North 144 166 5,300 -780 Descending Denver Center